Terminal Aerodrome Forecast
Issued by NWS

Home | Current Version | Previous Version | Text Only | Print | Product List | Glossary On
Versions: 1 2 3 4 5 6 7 8 9 10 11 12 13 14 15 16
000
FTUS42 KMLB 280534
TAFFPR
TAF
KFPR 280534Z 2806/2906 18005KT P6SM FEW020 SCT250
     FM281200 21011KT P6SM VCSH SCT025 BKN250
     FM281500 22012G22KT P6SM VCTS SCT035CB BKN060
     FM282200 19008KT P6SM FEW020 SCT080 BKN250=

USA.gov is the U.S. government's official web portal to all federal, state and local government web resources and services.